LEZL/SVQ METAR and TAF weather

Enter ICAO airport designator
Station Type Date Time Source
LEZL METAR 2020/04/04 20:30 UTC NOAA

LEZL 042030Z AUTO 28004KT CAVOK 17/11 Q1015


Station Type Date Time Source
LEZL Decoded METAR 2020/04/04 20:30 UTC NOAA

Sevilla / San Pablo, Spain (LEZL) 37-25N 005-54W 31M
Apr 04, 2020 - 04:30 PM EDT / 2020.04.04 2030 UTC
Wind: from the W (280 degrees) at 5 MPH (4 KT):0
Visibility: greater than 7 mile(s):0
Temperature: 62 F (17 C)
Dew Point: 51 F (11 C)
Relative Humidity: 67%
Pressure (altimeter): 29.97 in. Hg (1015 hPa)
ob: LEZL 042030Z AUTO 28004KT CAVOK 17/11 Q1015
cycle: 20

Station Type Date Time Source
LEZL TAF 2020/04/04 21:27 UTC NOAA

TAF LEZL 042000Z 0421/0521 06004KT 9999 FEW030 TX22/0515Z TN10/0507Z
BECMG 0512/0514 21010KT

Example: see airport list